Time,TemperatureF,DewpointF,PressureIn,WindDirection,WindDirectionDegrees,WindSpeedMPH,WindSpeedGustMPH,Humidity,HourlyPrecipIn,Conditions,Clouds,dailyrainin,SoftwareType,DateUTC
2013-10-23 00:00:00,45.4,38.3,29.50,NW,319,0.0,0.0,76,0.00,,---,0.00,VWS V14.01,2013-10-23 04:00:00,
2013-10-23 00:03:00,45.4,38.3,29.50,NW,319,0.0,0.0,76,0.00,,---,0.00,VWS V14.01,2013-10-23 04:03:00,
2013-10-23 00:08:00,45.1,38.0,29.50,NW,319,0.0,0.0,76,0.00,,---,0.00,VWS V14.01,2013-10-23 04:08:00,
2013-10-23 00:13:00,44.8,38.0,29.50,NW,319,0.0,0.0,77,0.00,,---,0.00,VWS V14.01,2013-10-23 04:13:00,
2013-10-23 00:19:00,44.6,38.2,29.50,NW,319,0.0,0.0,78,0.00,,---,0.00,VWS V14.01,2013-10-23 04:19:00,
2013-10-23 00:24:00,44.5,38.4,29.50,NW,319,0.0,0.0,79,0.00,,---,0.00,VWS V14.01,2013-10-23 04:24:00,
2013-10-23 00:29:00,44.5,38.7,29.49,NW,319,0.0,0.0,80,0.00,,---,0.00,VWS V14.01,2013-10-23 04:29:00,
2013-10-23 00:30:00,44.5,38.7,29.49,NW,319,0.0,0.0,80,0.00,,---,0.00,VWS V14.01,2013-10-23 04:30:00,
2013-10-23 00:34:00,44.5,37.8,29.49,NW,323,0.0,2.0,77,0.00,,---,0.00,VWS V14.01,2013-10-23 04:34:00,
2013-10-23 00:39:00,44.9,37.1,29.49,WNW,300,0.0,2.0,74,0.00,,---,0.00,VWS V14.01,2013-10-23 04:39:00,
2013-10-23 00:44:00,45.0,37.2,29.49,WNW,300,0.0,2.0,74,0.00,,---,0.00,VWS V14.01,2013-10-23 04:44:00,
2013-10-23 00:49:00,44.9,36.8,29.48,WNW,300,0.0,2.0,73,0.00,,---,0.00,VWS V14.01,2013-10-23 04:49:00,
2013-10-23 00:54:00,45.2,36.4,29.48,WNW,288,0.0,3.0,71,0.00,,---,0.00,VWS V14.01,2013-10-23 04:54:00,
2013-10-23 00:59:00,45.3,36.1,29.48,WNW,288,0.0,3.0,70,0.00,,---,0.00,VWS V14.01,2013-10-23 04:59:00,
2013-10-23 01:00:00,45.3,36.5,29.48,WNW,301,1.0,3.0,71,0.00,,---,0.00,VWS V14.01,2013-10-23 05:00:00,
2013-10-23 01:04:00,45.3,36.1,29.48,WNW,299,0.0,1.0,70,0.00,,---,0.00,VWS V14.01,2013-10-23 05:04:00,
2013-10-23 01:09:00,45.3,36.5,29.49,WNW,299,0.0,1.0,71,0.00,,---,0.00,VWS V14.01,2013-10-23 05:09:00,
2013-10-23 01:14:00,45.3,36.8,29.49,WNW,299,0.0,1.0,72,0.00,,---,0.00,VWS V14.01,2013-10-23 05:14:00,
2013-10-23 01:19:00,45.1,37.0,29.49,WNW,299,0.0,1.0,73,0.00,,---,0.00,VWS V14.01,2013-10-23 05:19:00,
2013-10-23 01:24:00,45.3,37.5,29.48,WNW,299,0.0,1.0,74,0.00,,---,0.00,VWS V14.01,2013-10-23 05:24:00,
2013-10-23 01:29:00,46.0,37.1,29.48,WNW,298,0.0,1.0,71,0.00,,---,0.00,VWS V14.01,2013-10-23 05:29:00,
2013-10-23 01:30:00,44.5,38.7,29.49,NW,319,0.0,0.0,80,0.00,,---,0.00,VWS V14.01,2013-10-23 05:30:00,
2013-10-23 01:34:00,46.1,36.9,29.48,WNW,298,0.0,1.0,70,0.00,,---,0.00,VWS V14.01,2013-10-23 05:34:00,
2013-10-23 01:39:00,46.2,37.0,29.48,NW,306,0.0,1.0,70,0.00,,---,0.00,VWS V14.01,2013-10-23 05:39:00,
2013-10-23 01:44:00,46.2,37.3,29.49,NW,304,0.0,1.0,71,0.00,,---,0.00,VWS V14.01,2013-10-23 05:44:00,
2013-10-23 01:49:00,46.1,37.2,29.49,SW,234,0.0,1.0,71,0.00,,---,0.00,VWS V14.01,2013-10-23 05:49:00,
2013-10-23 01:54:00,46.2,36.6,29.48,SW,234,0.0,1.0,69,0.00,,---,0.00,VWS V14.01,2013-10-23 05:54:00,
2013-10-23 01:59:00,46.7,36.7,29.48,North,355,1.0,2.0,68,0.00,,---,0.00,VWS V14.01,2013-10-23 05:59:00,
2013-10-23 02:00:00,46.8,36.4,29.48,NE,51,0.0,2.0,67,0.00,,---,0.00,VWS V14.01,2013-10-23 06:00:00,
2013-10-23 02:04:00,46.7,36.7,29.48,NE,51,0.0,1.0,68,0.00,,---,0.00,VWS V14.01,2013-10-23 06:04:00,
2013-10-23 02:09:00,46.7,36.7,29.50,SW,227,0.0,1.0,68,0.00,,---,0.00,VWS V14.01,2013-10-23 06:09:00,
2013-10-23 02:14:00,46.8,36.8,29.48,NNW,331,0.0,1.0,68,0.00,,---,0.00,VWS V14.01,2013-10-23 06:14:00,
2013-10-23 02:19:00,46.7,37.1,29.48,NNW,331,0.0,1.0,69,0.00,,---,0.00,VWS V14.01,2013-10-23 06:19:00,
2013-10-23 02:24:00,46.7,37.1,29.48,NNW,341,0.0,1.0,69,0.00,,---,0.00,VWS V14.01,2013-10-23 06:24:00,
2013-10-23 02:29:00,46.9,37.3,29.48,NNW,341,0.0,1.0,69,0.00,,---,0.00,VWS V14.01,2013-10-23 06:29:00,
2013-10-23 02:30:00,46.9,37.3,29.48,NNW,341,0.0,1.0,69,0.00,,---,0.00,VWS V14.01,2013-10-23 06:30:00,
2013-10-23 02:34:00,47.0,37.0,29.48,WNW,289,1.0,2.0,68,0.00,,---,0.00,VWS V14.01,2013-10-23 06:34:00,
2013-10-23 02:39:00,47.2,37.2,29.48,WNW,296,0.0,2.0,68,0.00,,---,0.00,VWS V14.01,2013-10-23 06:39:00,
2013-10-23 02:44:00,47.2,36.4,29.48,WNW,302,1.0,2.0,66,0.00,,---,0.00,VWS V14.01,2013-10-23 06:44:00,
2013-10-23 02:49:00,47.3,36.5,29.47,WNW,302,0.0,2.0,66,0.00,,---,0.00,VWS V14.01,2013-10-23 06:49:00,
2013-10-23 02:54:00,47.3,36.2,29.47,WNW,302,0.0,3.0,65,0.00,,---,0.00,VWS V14.01,2013-10-23 06:54:00,
2013-10-23 02:59:00,47.3,36.5,29.47,WNW,302,0.0,3.0,66,0.00,,---,0.00,VWS V14.01,2013-10-23 06:59:00,
2013-10-23 03:00:00,47.2,36.4,29.47,NW,323,0.0,3.0,66,0.00,,---,0.00,VWS V14.01,2013-10-23 07:00:00,
2013-10-23 03:04:00,47.1,36.3,29.47,NW,323,0.0,1.0,66,0.00,,---,0.00,VWS V14.01,2013-10-23 07:04:00,
2013-10-23 03:09:00,47.0,37.0,29.47,WNW,297,2.0,2.0,68,0.00,,---,0.00,VWS V14.01,2013-10-23 07:09:00,
2013-10-23 03:14:00,47.0,36.2,29.47,WNW,298,1.0,2.0,66,0.00,,---,0.00,VWS V14.01,2013-10-23 07:14:00,
2013-10-23 03:19:00,47.2,36.0,29.47,NW,309,0.0,3.0,65,0.00,,---,0.00,VWS V14.01,2013-10-23 07:19:00,
2013-10-23 03:24:00,47.2,36.0,29.47,NW,308,1.0,3.0,65,0.00,,---,0.00,VWS V14.01,2013-10-23 07:24:00,
2013-10-23 03:29:00,47.1,36.0,29.46,NW,308,0.0,3.0,65,0.00,,---,0.00,VWS V14.01,2013-10-23 07:29:00,
2013-10-23 03:30:00,47.1,36.3,29.46,NW,308,0.0,3.0,66,0.00,,---,0.00,VWS V14.01,2013-10-23 07:30:00,
2013-10-23 03:34:00,47.0,36.2,29.46,NNE,22,0.0,2.0,66,0.00,,---,0.00,VWS V14.01,2013-10-23 07:34:00,
2013-10-23 03:39:00,47.0,36.2,29.45,NNE,15,1.0,2.0,66,0.00,,---,0.00,VWS V14.01,2013-10-23 07:39:00,
2013-10-23 03:44:00,46.8,36.0,29.45,North,5,0.0,2.0,66,0.00,,---,0.00,VWS V14.01,2013-10-23 07:44:00,
2013-10-23 03:49:00,46.8,35.7,29.45,NNW,333,0.0,2.0,65,0.00,,---,0.00,VWS V14.01,2013-10-23 07:49:00,
2013-10-23 03:54:00,46.9,35.8,29.45,NW,308,0.0,2.0,65,0.00,,---,0.00,VWS V14.01,2013-10-23 07:54:00,
2013-10-23 03:59:00,46.6,36.2,29.45,NW,308,0.0,2.0,67,0.00,,---,0.00,VWS V14.01,2013-10-23 07:59:00,
2013-10-23 04:00:00,46.6,36.2,29.45,NW,308,0.0,2.0,67,0.00,,---,0.00,VWS V14.01,2013-10-23 08:00:00,
2013-10-23 04:04:00,46.8,36.4,29.45,NW,309,0.0,1.0,67,0.00,,---,0.00,VWS V14.01,2013-10-23 08:04:00,
2013-10-23 04:09:00,46.9,35.8,29.45,NNW,330,0.0,2.0,65,0.00,,---,0.00,VWS V14.01,2013-10-23 08:09:00,
2013-10-23 04:14:00,47.0,35.5,29.45,NNE,24,0.0,3.0,64,0.00,,---,0.00,VWS V14.01,2013-10-23 08:14:00,
2013-10-23 04:19:00,47.1,35.6,29.44,NW,317,0.0,3.0,64,0.00,,---,0.00,VWS V14.01,2013-10-23 08:19:00,
2013-10-23 04:24:00,47.1,35.6,29.44,NNE,30,0.0,3.0,64,0.00,,---,0.00,VWS V14.01,2013-10-23 08:24:00,
2013-10-23 04:29:00,47.0,35.9,29.44,NW,316,0.0,3.0,65,0.00,,---,0.00,VWS V14.01,2013-10-23 08:29:00,
2013-10-23 04:30:00,47.0,36.2,29.44,NW,316,0.0,3.0,66,0.00,,---,0.00,VWS V14.01,2013-10-23 08:30:00,
2013-10-23 04:34:00,46.7,35.6,29.44,NNE,25,0.0,1.0,65,0.00,,---,0.00,VWS V14.01,2013-10-23 08:34:00,
2013-10-23 04:39:00,46.7,35.2,29.45,NNE,25,0.0,1.0,64,0.00,,---,0.00,VWS V14.01,2013-10-23 08:39:00,
2013-10-23 04:44:00,46.7,35.2,29.45,NNE,25,0.0,1.0,64,0.00,,---,0.00,VWS V14.01,2013-10-23 08:44:00,
2013-10-23 04:49:00,46.6,35.9,29.45,NNE,25,0.0,1.0,66,0.00,,---,0.00,VWS V14.01,2013-10-23 08:49:00,
2013-10-23 04:54:00,46.6,36.2,29.44,NNE,25,0.0,1.0,67,0.00,,---,0.00,VWS V14.01,2013-10-23 08:54:00,
2013-10-23 04:59:00,46.4,36.0,29.44,NNE,25,0.0,1.0,67,0.00,,---,0.00,VWS V14.01,2013-10-23 08:59:00,
2013-10-23 05:00:00,46.3,36.0,29.44,NNE,25,0.0,1.0,67,0.00,,---,0.00,VWS V14.01,2013-10-23 09:00:00,
2013-10-23 05:04:00,46.3,36.0,29.44,NNE,24,1.0,1.0,67,0.00,,---,0.00,VWS V14.01,2013-10-23 09:04:00,
2013-10-23 05:09:00,46.4,36.0,29.44,NNE,24,0.0,1.0,67,0.00,,---,0.00,VWS V14.01,2013-10-23 09:09:00,
2013-10-23 05:14:00,46.4,35.7,29.44,NNE,24,0.0,1.0,66,0.00,,---,0.00,VWS V14.01,2013-10-23 09:14:00,
2013-10-23 05:19:00,46.4,35.7,29.44,NNW,346,1.0,2.0,66,0.00,,---,0.00,VWS V14.01,2013-10-23 09:19:00,
2013-10-23 05:24:00,46.4,35.7,29.44,NW,319,0.0,4.0,66,0.00,,---,0.00,VWS V14.01,2013-10-23 09:24:00,
2013-10-23 05:29:00,46.4,36.0,29.44,NNE,22,0.0,4.0,67,0.00,,---,0.00,VWS V14.01,2013-10-23 09:29:00,
2013-10-23 05:30:00,46.4,35.7,29.44,NW,312,1.0,4.0,66,0.00,,---,0.00,VWS V14.01,2013-10-23 09:30:00,
2013-10-23 05:35:00,46.3,36.0,29.44,NW,312,0.0,2.0,67,0.00,,---,0.00,VWS V14.01,2013-10-23 09:35:00,
2013-10-23 05:40:00,46.2,36.6,29.45,NW,312,1.0,2.0,69,0.00,,---,0.00,VWS V14.01,2013-10-23 09:40:00,
2013-10-23 05:45:00,46.2,36.2,29.45,WNW,298,0.0,2.0,68,0.00,,---,0.00,VWS V14.01,2013-10-23 09:45:00,
2013-10-23 05:50:00,46.3,36.3,29.45,WNW,298,0.0,2.0,68,0.00,,---,0.00,VWS V14.01,2013-10-23 09:50:00,
2013-10-23 05:55:00,46.0,36.8,29.44,WNW,298,0.0,2.0,70,0.00,,---,0.00,VWS V14.01,2013-10-23 09:55:00,
2013-10-23 06:00:00,46.0,36.4,29.44,North,5,0.0,2.0,69,0.00,,---,0.00,VWS V14.01,2013-10-23 10:00:00,
2013-10-23 06:05:00,46.0,36.8,29.43,North,5,0.0,1.0,70,0.00,,---,0.00,VWS V14.01,2013-10-23 10:05:00,
2013-10-23 06:10:00,45.9,37.0,29.43,North,5,0.0,1.0,71,0.00,,---,0.00,VWS V14.01,2013-10-23 10:10:00,
2013-10-23 06:15:00,45.9,36.7,29.43,North,5,0.0,2.0,70,0.00,,---,0.00,VWS V14.01,2013-10-23 10:15:00,
2013-10-23 06:20:00,46.0,36.4,29.43,North,5,0.0,2.0,69,0.00,,---,0.00,VWS V14.01,2013-10-23 10:20:00,
2013-10-23 06:25:00,46.0,36.0,29.44,North,360,0.0,2.0,68,0.00,,---,0.00,VWS V14.01,2013-10-23 10:25:00,
2013-10-23 06:30:00,45.9,37.0,29.44,North,360,0.0,2.0,71,0.00,,---,0.00,VWS V14.01,2013-10-23 10:30:00,
2013-10-23 06:35:00,45.7,36.5,29.43,NE,34,0.0,2.0,70,0.00,,---,0.00,VWS V14.01,2013-10-23 10:35:00,
2013-10-23 06:40:00,45.5,36.3,29.42,NE,34,0.0,2.0,70,0.00,,---,0.00,VWS V14.01,2013-10-23 10:40:00,
2013-10-23 06:45:00,45.4,36.2,29.43,NE,34,0.0,2.0,70,0.00,,---,0.00,VWS V14.01,2013-10-23 10:45:00,
2013-10-23 06:50:00,45.5,36.7,29.44,NE,34,0.0,2.0,71,0.00,,---,0.00,VWS V14.01,2013-10-23 10:50:00,
2013-10-23 06:55:00,45.4,36.9,29.44,NE,34,0.0,2.0,72,0.00,,---,0.00,VWS V14.01,2013-10-23 10:55:00,
2013-10-23 07:00:00,45.5,37.0,29.44,North,5,1.0,2.0,72,0.00,,---,0.00,VWS V14.01,2013-10-23 11:00:00,
2013-10-23 07:05:00,45.9,37.0,29.44,NE,49,2.0,3.0,71,0.00,,---,0.00,VWS V14.01,2013-10-23 11:05:00,
2013-10-23 07:10:00,45.9,37.0,29.43,North,5,0.0,3.0,71,0.00,,---,0.00,VWS V14.01,2013-10-23 11:10:00,
2013-10-23 07:15:00,45.8,36.6,29.43,North,5,0.0,3.0,70,0.00,,---,0.00,VWS V14.01,2013-10-23 11:15:00,
2013-10-23 07:20:00,45.8,36.6,29.43,North,5,0.0,3.0,70,0.00,,---,0.00,VWS V14.01,2013-10-23 11:20:00,
2013-10-23 07:25:00,45.9,36.3,29.43,North,355,0.0,3.0,69,0.00,,---,0.00,VWS V14.01,2013-10-23 11:25:00,
2013-10-23 07:30:00,46.0,36.8,29.43,North,355,0.0,3.0,70,0.00,,---,0.00,VWS V14.01,2013-10-23 11:30:00,
2013-10-23 07:35:00,45.7,36.8,29.43,North,355,0.0,0.0,71,0.00,,---,0.00,VWS V14.01,2013-10-23 11:35:00,
2013-10-23 07:40:00,45.7,37.2,29.43,North,355,0.0,1.0,72,0.00,,---,0.00,VWS V14.01,2013-10-23 11:40:00,
2013-10-23 07:45:00,45.9,37.0,29.43,North,355,0.0,1.0,71,0.00,,---,0.00,VWS V14.01,2013-10-23 11:45:00,
2013-10-23 07:50:00,46.0,36.8,29.44,NW,321,1.0,2.0,70,0.00,,---,0.00,VWS V14.01,2013-10-23 11:50:00,
2013-10-23 07:55:00,46.1,36.5,29.44,WNW,303,1.0,2.0,69,0.00,,---,0.00,VWS V14.01,2013-10-23 11:55:00,
2013-10-23 08:00:00,46.3,36.7,29.44,North,5,0.0,3.0,69,0.00,,---,0.00,VWS V14.01,2013-10-23 12:00:00,
2013-10-23 08:05:00,46.4,36.8,29.43,NNE,19,0.0,2.0,69,0.00,,---,0.00,VWS V14.01,2013-10-23 12:05:00,
2013-10-23 08:10:00,46.1,37.2,29.43,NNE,19,0.0,2.0,71,0.00,,---,0.00,VWS V14.01,2013-10-23 12:10:00,
2013-10-23 08:15:00,46.2,37.0,29.44,East,87,0.0,3.0,70,0.00,,---,0.00,VWS V14.01,2013-10-23 12:15:00,
2013-10-23 08:20:00,46.3,37.1,29.44,NW,314,2.0,3.0,70,0.00,,---,0.00,VWS V14.01,2013-10-23 12:20:00,
2013-10-23 08:25:00,46.5,36.9,29.44,NNW,328,4.0,4.0,69,0.00,,---,0.00,VWS V14.01,2013-10-23 12:25:00,
2013-10-23 08:30:00,46.7,36.7,29.44,NW,323,1.0,4.0,68,0.00,,---,0.00,VWS V14.01,2013-10-23 12:30:00,
2013-10-23 08:35:00,46.9,36.9,29.43,North,350,0.0,3.0,68,0.00,,---,0.00,VWS V14.01,2013-10-23 12:35:00,
2013-10-23 08:40:00,46.9,36.9,29.43,North,11,0.0,3.0,68,0.00,,---,0.00,VWS V14.01,2013-10-23 12:40:00,
2013-10-23 08:45:00,46.9,37.6,29.42,North,11,0.0,3.0,70,0.00,,---,0.00,VWS V14.01,2013-10-23 12:45:00,
2013-10-23 08:50:00,46.9,37.6,29.41,ENE,77,2.0,3.0,70,0.00,,---,0.00,VWS V14.01,2013-10-23 12:50:00,
2013-10-23 08:55:00,47.0,37.4,29.41,ENE,57,0.0,4.0,69,0.00,,---,0.00,VWS V14.01,2013-10-23 12:55:00,
2013-10-23 09:00:00,47.0,37.4,29.40,NE,44,1.0,5.0,69,0.00,,---,0.00,VWS V14.01,2013-10-23 13:00:00,
2013-10-23 09:05:00,47.1,37.5,29.39,NE,53,0.0,2.0,69,0.00,,---,0.00,VWS V14.01,2013-10-23 13:05:00,
2013-10-23 09:10:00,47.4,37.0,29.41,NNW,336,2.0,3.0,67,0.00,,---,0.00,VWS V14.01,2013-10-23 13:10:00,
2013-10-23 09:15:00,47.8,36.6,29.42,NW,306,1.0,3.0,65,0.00,,---,0.00,VWS V14.01,2013-10-23 13:15:00,
2013-10-23 09:20:00,48.1,37.3,29.42,NW,306,0.0,3.0,66,0.00,,---,0.00,VWS V14.01,2013-10-23 13:20:00,
2013-10-23 09:25:00,48.4,37.2,29.42,North,9,0.0,3.0,65,0.00,,---,0.00,VWS V14.01,2013-10-23 13:25:00,
2013-10-23 09:30:00,48.6,37.4,29.42,NW,325,0.0,3.0,65,0.00,,---,0.00,VWS V14.01,2013-10-23 13:30:00,
2013-10-23 09:35:00,48.5,37.3,29.41,NNE,19,1.0,3.0,65,0.00,,---,0.00,VWS V14.01,2013-10-23 13:35:00,
2013-10-23 09:40:00,48.1,37.7,29.40,East,100,0.0,3.0,67,0.00,,---,0.00,VWS V14.01,2013-10-23 13:40:00,
2013-10-23 09:45:00,48.3,37.5,29.40,NW,315,0.0,3.0,66,0.00,,---,0.00,VWS V14.01,2013-10-23 13:45:00,
2013-10-23 09:50:00,48.5,37.7,29.40,North,355,2.0,3.0,66,0.00,,---,0.00,VWS V14.01,2013-10-23 13:50:00,
2013-10-23 09:55:00,48.7,37.9,29.39,NW,325,2.0,3.0,66,0.00,,---,0.00,VWS V14.01,2013-10-23 13:55:00,
2013-10-23 10:00:00,48.9,37.7,29.39,NW,321,2.0,6.0,65,0.00,,---,0.00,VWS V14.01,2013-10-23 14:00:00,
2013-10-23 10:05:00,49.1,37.5,29.39,NNW,331,2.0,5.0,64,0.00,,---,0.00,VWS V14.01,2013-10-23 14:05:00,
2013-10-23 10:10:00,49.2,37.2,29.39,NNW,345,3.0,5.0,63,0.00,,---,0.00,VWS V14.01,2013-10-23 14:10:00,
2013-10-23 10:15:00,49.1,37.1,29.38,North,5,2.0,6.0,63,0.00,,---,0.00,VWS V14.01,2013-10-23 14:15:00,
2013-10-23 10:20:00,49.4,37.3,29.38,West,279,2.0,6.0,63,0.00,,---,0.00,VWS V14.01,2013-10-23 14:20:00,
2013-10-23 10:25:00,49.6,37.1,29.38,North,360,1.0,6.0,62,0.00,,---,0.00,VWS V14.01,2013-10-23 14:25:00,
2013-10-23 10:30:00,49.3,36.8,29.38,North,11,1.0,6.0,62,0.00,,---,0.00,VWS V14.01,2013-10-23 14:30:00,
2013-10-23 10:35:00,49.8,37.3,29.38,NNW,344,1.0,7.0,62,0.00,,---,0.00,VWS V14.01,2013-10-23 14:35:00,
2013-10-23 10:40:00,50.2,36.9,29.38,NW,305,3.0,7.0,60,0.00,,---,0.00,VWS V14.01,2013-10-23 14:40:00,
2013-10-23 10:45:00,50.8,37.4,29.38,North,5,5.0,7.0,60,0.00,,---,0.00,VWS V14.01,2013-10-23 14:45:00,
2013-10-23 10:50:00,50.9,37.1,29.37,NW,326,2.0,7.0,59,0.00,,---,0.00,VWS V14.01,2013-10-23 14:50:00,
2013-10-23 10:55:00,51.4,38.0,29.37,NNE,33,1.0,7.0,60,0.00,,---,0.00,VWS V14.01,2013-10-23 14:55:00,
2013-10-23 11:00:00,51.6,37.8,29.37,NNE,19,3.0,7.0,59,0.00,,---,0.00,VWS V14.01,2013-10-23 15:00:00,
2013-10-23 11:05:00,51.6,37.3,29.37,ESE,119,0.0,3.0,58,0.00,,---,0.00,VWS V14.01,2013-10-23 15:05:00,
2013-10-23 11:10:00,51.5,37.7,29.36,WNW,294,1.0,6.0,59,0.00,,---,0.00,VWS V14.01,2013-10-23 15:10:00,
2013-10-23 11:15:00,51.5,38.1,29.36,NNE,33,2.0,6.0,60,0.00,,---,0.00,VWS V14.01,2013-10-23 15:15:00,
2013-10-23 11:20:00,51.5,37.7,29.36,NNW,342,2.0,6.0,59,0.00,,---,0.00,VWS V14.01,2013-10-23 15:20:00,
2013-10-23 11:25:00,51.8,37.9,29.36,NNW,340,1.0,6.0,59,0.00,,---,0.00,VWS V14.01,2013-10-23 15:25:00,
2013-10-23 11:30:00,51.8,37.9,29.36,North,5,0.0,6.0,59,0.00,,---,0.00,VWS V14.01,2013-10-23 15:30:00,
2013-10-23 11:35:00,52.0,38.1,29.36,NW,313,1.0,4.0,59,0.00,,---,0.00,VWS V14.01,2013-10-23 15:35:00,
2013-10-23 11:40:00,52.0,38.1,29.35,NW,311,1.0,4.0,59,0.00,,---,0.00,VWS V14.01,2013-10-23 15:40:00,
2013-10-23 11:45:00,53.0,38.6,29.35,West,277,4.0,6.0,58,0.00,,---,0.00,VWS V14.01,2013-10-23 15:45:00,
2013-10-23 11:50:00,54.1,38.8,29.35,NNE,28,0.0,6.0,56,0.00,,---,0.00,VWS V14.01,2013-10-23 15:50:00,
2013-10-23 11:55:00,54.0,39.1,29.34,NW,320,1.0,6.0,57,0.00,,---,0.00,VWS V14.01,2013-10-23 15:55:00,
2013-10-23 12:00:00,54.4,39.5,29.34,SSE,165,0.0,6.0,57,0.00,,---,0.00,VWS V14.01,2013-10-23 16:00:00,
2013-10-23 12:05:00,55.4,40.0,29.34,East,97,2.0,4.0,56,0.00,,---,0.00,VWS V14.01,2013-10-23 16:05:00,
2013-10-23 12:10:00,55.4,40.0,29.34,ESE,110,1.0,4.0,56,0.00,,---,0.00,VWS V14.01,2013-10-23 16:10:00,
2013-10-23 12:15:00,55.3,39.9,29.34,SE,132,0.0,7.0,56,0.00,,---,0.00,VWS V14.01,2013-10-23 16:15:00,
2013-10-23 12:20:00,55.6,39.2,29.34,ESE,103,2.0,7.0,54,0.00,,---,0.00,VWS V14.01,2013-10-23 16:20:00,
2013-10-23 12:26:00,55.1,39.2,29.33,NNE,13,1.0,7.0,55,0.00,,---,0.00,VWS V14.01,2013-10-23 16:26:00,
2013-10-23 12:30:00,56.6,40.6,29.33,WNW,290,0.0,7.0,55,0.00,,---,0.00,VWS V14.01,2013-10-23 16:30:00,
2013-10-23 12:31:00,56.6,40.6,29.33,WNW,292,0.0,0.0,55,0.00,,---,0.00,VWS V14.01,2013-10-23 16:31:00,
2013-10-23 12:36:00,56.2,40.3,29.33,NW,320,2.0,5.0,55,0.00,,---,0.00,VWS V14.01,2013-10-23 16:36:00,
2013-10-23 12:41:00,56.4,40.5,29.33,NNW,344,1.0,5.0,55,0.00,,---,0.00,VWS V14.01,2013-10-23 16:41:00,
2013-10-23 12:46:00,55.7,40.3,29.33,NNW,328,1.0,5.0,56,0.00,,---,0.00,VWS V14.01,2013-10-23 16:46:00,
2013-10-23 12:51:00,55.6,41.5,29.32,East,96,2.0,5.0,59,0.00,,---,0.00,VWS V14.01,2013-10-23 16:51:00,
2013-10-23 12:56:00,55.4,40.9,29.32,WNW,290,1.0,5.0,58,0.00,,---,0.00,VWS V14.01,2013-10-23 16:56:00,
2013-10-23 13:00:00,57.0,41.0,29.32,North,360,3.0,8.0,55,0.00,,---,0.00,VWS V14.01,2013-10-23 17:00:00,
2013-10-23 13:01:00,56.9,40.9,29.32,North,360,2.0,3.0,55,0.00,,---,0.00,VWS V14.01,2013-10-23 17:01:00,
2013-10-23 13:06:00,56.4,41.4,29.32,NNW,336,1.0,4.0,57,0.00,,---,0.00,VWS V14.01,2013-10-23 17:06:00,
2013-10-23 13:11:00,56.4,41.4,29.32,NNW,343,4.0,6.0,57,0.00,,---,0.00,VWS V14.01,2013-10-23 17:11:00,
2013-10-23 13:16:00,55.7,40.7,29.31,NW,308,5.0,6.0,57,0.00,,---,0.00,VWS V14.01,2013-10-23 17:16:00,
2013-10-23 13:21:00,55.8,41.7,29.31,NW,313,1.0,6.0,59,0.00,,---,0.00,VWS V14.01,2013-10-23 17:21:00,
2013-10-23 13:26:00,56.3,41.7,29.31,NNW,348,0.0,6.0,58,0.00,,---,0.00,VWS V14.01,2013-10-23 17:26:00,
2013-10-23 13:30:00,56.4,42.3,29.31,NW,326,4.0,6.0,59,0.00,,---,0.00,VWS V14.01,2013-10-23 17:30:00,
2013-10-23 13:31:00,56.4,42.3,29.31,NW,323,3.0,4.0,59,0.00,,---,0.00,VWS V14.01,2013-10-23 17:31:00,
2013-10-23 13:36:00,56.4,41.8,29.31,North,355,0.0,4.0,58,0.00,,---,0.00,VWS V14.01,2013-10-23 17:36:00,
2013-10-23 13:41:00,55.2,42.0,29.31,ENE,75,0.0,4.0,61,0.00,,---,0.00,VWS V14.01,2013-10-23 17:41:00,
2013-10-23 13:46:00,56.5,42.4,29.31,NNW,338,3.0,6.0,59,0.00,,---,0.00,VWS V14.01,2013-10-23 17:46:00,
2013-10-23 13:51:00,56.5,41.5,29.30,WNW,293,0.0,6.0,57,0.00,,---,0.00,VWS V14.01,2013-10-23 17:51:00,
2013-10-23 13:56:00,56.8,41.3,29.30,NW,312,4.0,6.0,56,0.00,,---,0.00,VWS V14.01,2013-10-23 17:56:00,
2013-10-23 14:00:00,56.2,41.2,29.30,WNW,292,2.0,7.0,57,0.00,,---,0.00,VWS V14.01,2013-10-23 18:00:00,
2013-10-23 14:30:00,56.7,41.7,29.30,WNW,292,3.0,10.0,57,0.00,,---,0.00,VWS V14.01,2013-10-23 18:30:00,
2013-10-23 15:00:00,55.9,40.0,29.30,NW,315,3.0,9.0,55,0.00,,---,0.00,VWS V14.01,2013-10-23 19:00:00,
2013-10-23 15:30:00,56.7,38.3,29.30,NW,315,3.0,10.0,50,0.00,,---,0.00,VWS V14.01,2013-10-23 19:30:00,
2013-10-23 16:00:00,55.8,37.5,29.31,NW,315,4.0,12.0,50,0.00,,---,0.00,VWS V14.01,2013-10-23 20:00:00,
2013-10-23 16:30:00,54.5,37.2,29.32,NW,315,3.0,10.0,52,0.00,,---,0.00,VWS V14.01,2013-10-23 20:30:00,
2013-10-23 17:00:00,53.2,35.6,29.33,NW,315,5.0,17.0,51,0.00,,---,0.00,VWS V14.01,2013-10-23 21:00:00,
2013-10-23 17:30:00,52.1,35.5,29.35,NW,315,4.0,15.0,53,0.00,,---,0.00,VWS V14.01,2013-10-23 21:30:00,
2013-10-23 18:00:00,53.2,35.6,29.33,NW,315,5.0,17.0,51,0.00,,---,0.00,VWS V14.01,2013-10-23 22:00:00,
2013-10-23 18:18:00,50.6,35.5,29.37,NW,306,0.0,4.0,56,0.00,,---,0.00,VWS V14.01,2013-10-23 22:18:00,
2013-10-23 18:23:00,50.4,35.3,29.38,WNW,301,2.0,4.0,56,0.00,,---,0.00,VWS V14.01,2013-10-23 22:23:00,
2013-10-23 18:28:00,50.3,35.7,29.38,NE,53,0.0,4.0,57,0.00,,---,0.00,VWS V14.01,2013-10-23 22:28:00,
2013-10-23 18:30:00,50.3,35.7,29.38,WNW,290,2.0,4.0,57,0.00,,---,0.00,VWS V14.01,2013-10-23 22:30:00,
2013-10-23 18:33:00,50.2,35.6,29.38,WNW,294,0.0,7.0,57,0.00,,---,0.00,VWS V14.01,2013-10-23 22:33:00,
2013-10-23 18:38:00,50.2,36.0,29.38,NW,317,3.0,8.0,58,0.00,,---,0.00,VWS V14.01,2013-10-23 22:38:00,
2013-10-23 18:43:00,50.1,35.9,29.38,WNW,283,4.0,8.0,58,0.00,,---,0.00,VWS V14.01,2013-10-23 22:43:00,
2013-10-23 18:48:00,50.0,35.8,29.39,WNW,300,0.0,8.0,58,0.00,,---,0.00,VWS V14.01,2013-10-23 22:48:00,
2013-10-23 18:53:00,49.9,36.2,29.39,WNW,300,2.0,8.0,59,0.00,,---,0.00,VWS V14.01,2013-10-23 22:53:00,
2013-10-23 18:58:00,49.7,36.0,29.39,West,273,3.0,8.0,59,0.00,,---,0.00,VWS V14.01,2013-10-23 22:58:00,
2013-10-23 19:00:00,49.7,36.4,29.39,NW,304,3.0,8.0,60,0.00,,---,0.00,VWS V14.01,2013-10-23 23:00:00,
2013-10-23 19:03:00,49.6,36.3,29.39,West,280,0.0,5.0,60,0.00,,---,0.00,VWS V14.01,2013-10-23 23:03:00,
2013-10-23 19:08:00,49.5,36.6,29.39,NW,307,1.0,8.0,61,0.00,,---,0.00,VWS V14.01,2013-10-23 23:08:00,
2013-10-23 19:13:00,49.4,36.5,29.40,NW,309,0.0,8.0,61,0.00,,---,0.00,VWS V14.01,2013-10-23 23:13:00,
2013-10-23 19:18:00,49.2,36.8,29.40,WNW,293,0.0,8.0,62,0.00,,---,0.00,VWS V14.01,2013-10-23 23:18:00,
2013-10-23 19:23:00,49.0,36.6,29.40,WNW,298,2.0,8.0,62,0.00,,---,0.00,VWS V14.01,2013-10-23 23:23:00,
2013-10-23 19:28:00,48.9,36.9,29.40,WNW,288,1.0,8.0,63,0.00,,---,0.00,VWS V14.01,2013-10-23 23:28:00,
2013-10-23 19:30:00,50.3,35.7,29.38,WNW,290,2.0,4.0,57,0.00,,---,0.00,VWS V14.01,2013-10-23 23:30:00,
2013-10-23 19:33:00,48.7,36.7,29.40,West,274,2.0,4.0,63,0.00,,---,0.00,VWS V14.01,2013-10-23 23:33:00,
2013-10-23 19:38:00,48.6,36.6,29.41,WNW,296,0.0,7.0,63,0.00,,---,0.00,VWS V14.01,2013-10-23 23:38:00,
2013-10-23 19:43:00,48.5,36.5,29.41,NW,307,2.0,7.0,63,0.00,,---,0.00,VWS V14.01,2013-10-23 23:43:00,
2013-10-23 19:48:00,48.4,36.4,29.41,WNW,291,1.0,10.0,63,0.00,,---,0.00,VWS V14.01,2013-10-23 23:48:00,
2013-10-23 19:53:00,48.3,36.7,29.41,West,276,3.0,10.0,64,0.00,,---,0.00,VWS V14.01,2013-10-23 23:53:00,
2013-10-23 19:58:00,48.2,36.6,29.42,NW,308,4.0,10.0,64,0.00,,---,0.00,VWS V14.01,2013-10-23 23:58:00,
2013-10-23 20:00:00,49.7,36.4,29.39,NW,304,3.0,8.0,60,0.00,,---,0.00,VWS V14.01,2013-10-24 00:00:00,
2013-10-23 20:03:00,47.9,36.7,29.42,SSE,165,0.0,5.0,65,0.00,,---,0.00,VWS V14.01,2013-10-24 00:03:00,
2013-10-23 20:08:00,47.8,36.6,29.42,NW,306,0.0,8.0,65,0.00,,---,0.00,VWS V14.01,2013-10-24 00:08:00,
2013-10-23 20:13:00,47.6,36.8,29.42,WNW,301,4.0,8.0,66,0.00,,---,0.00,VWS V14.01,2013-10-24 00:13:00,
2013-10-23 20:18:00,47.4,36.6,29.42,NW,311,4.0,8.0,66,0.00,,---,0.00,VWS V14.01,2013-10-24 00:18:00,
2013-10-23 20:23:00,47.3,36.9,29.43,West,281,3.0,9.0,67,0.00,,---,0.00,VWS V14.01,2013-10-24 00:23:00,
2013-10-23 20:28:00,47.2,36.8,29.43,SW,220,0.0,9.0,67,0.00,,---,0.00,VWS V14.01,2013-10-24 00:28:00,
2013-10-23 20:30:00,48.8,36.8,29.40,WNW,298,4.0,8.0,63,0.00,,---,0.00,VWS V14.01,2013-10-24 00:30:00,
2013-10-23 20:33:00,46.9,36.9,29.43,North,350,0.0,4.0,68,0.00,,---,0.00,VWS V14.01,2013-10-24 00:33:00,
2013-10-23 20:38:00,46.8,36.8,29.43,West,271,0.0,8.0,68,0.00,,---,0.00,VWS V14.01,2013-10-24 00:38:00,
2013-10-23 20:43:00,46.7,36.7,29.43,NW,309,2.0,8.0,68,0.00,,---,0.00,VWS V14.01,2013-10-24 00:43:00,
2013-10-23 20:48:00,46.6,37.0,29.43,WNW,291,2.0,10.0,69,0.00,,---,0.00,VWS V14.01,2013-10-24 00:48:00,
2013-10-23 20:53:00,46.4,36.8,29.44,NNW,327,0.0,10.0,69,0.00,,---,0.00,VWS V14.01,2013-10-24 00:53:00,
2013-10-23 20:58:00,46.2,37.0,29.44,WNW,303,0.0,10.0,70,0.00,,---,0.00,VWS V14.01,2013-10-24 00:58:00,
2013-10-23 21:00:00,48.1,36.9,29.42,NW,324,1.0,10.0,65,0.00,,---,0.00,VWS V14.01,2013-10-24 01:00:00,
2013-10-23 21:04:00,45.9,37.0,29.44,WNW,303,0.0,1.0,71,0.00,,---,0.00,VWS V14.01,2013-10-24 01:04:00,
2013-10-23 21:09:00,45.6,36.8,29.44,West,275,0.0,5.0,71,0.00,,---,0.00,VWS V14.01,2013-10-24 01:09:00,
2013-10-23 21:14:00,45.6,37.1,29.44,SW,235,0.0,5.0,72,0.00,,---,0.00,VWS V14.01,2013-10-24 01:14:00,
2013-10-23 21:19:00,45.5,37.0,29.44,NW,307,1.0,5.0,72,0.00,,---,0.00,VWS V14.01,2013-10-24 01:19:00,
2013-10-23 21:24:00,45.4,36.9,29.45,North,360,0.0,5.0,72,0.00,,---,0.00,VWS V14.01,2013-10-24 01:24:00,
2013-10-23 21:29:00,45.2,37.1,29.45,WNW,302,1.0,5.0,73,0.00,,---,0.00,VWS V14.01,2013-10-24 01:29:00,
2013-10-23 21:30:00,47.1,37.1,29.43,South,184,0.0,9.0,68,0.00,,---,0.00,VWS V14.01,2013-10-24 01:30:00,
2013-10-23 21:34:00,45.1,37.0,29.45,NNW,331,0.0,3.0,73,0.00,,---,0.00,VWS V14.01,2013-10-24 01:34:00,
2013-10-23 21:39:00,44.8,37.0,29.45,WNW,288,0.0,3.0,74,0.00,,---,0.00,VWS V14.01,2013-10-24 01:39:00,
2013-10-23 21:44:00,44.5,36.7,29.45,WNW,293,0.0,3.0,74,0.00,,---,0.00,VWS V14.01,2013-10-24 01:44:00,
2013-10-23 21:49:00,44.3,36.9,29.46,WNW,285,3.0,3.0,75,0.00,,---,0.00,VWS V14.01,2013-10-24 01:49:00,
2013-10-23 21:54:00,44.1,37.0,29.46,WNW,286,0.0,5.0,76,0.00,,---,0.00,VWS V14.01,2013-10-24 01:54:00,
2013-10-23 21:59:00,44.0,36.9,29.46,WNW,290,1.0,5.0,76,0.00,,---,0.00,VWS V14.01,2013-10-24 01:59:00,
2013-10-23 22:00:00,46.0,37.1,29.44,WNW,303,0.0,10.0,71,0.00,,---,0.00,VWS V14.01,2013-10-24 02:00:00,
2013-10-23 22:04:00,43.9,37.2,29.46,WNW,294,0.0,5.0,77,0.00,,---,0.00,VWS V14.01,2013-10-24 02:04:00,
2013-10-23 22:09:00,43.8,37.1,29.46,WNW,286,2.0,5.0,77,0.00,,---,0.00,VWS V14.01,2013-10-24 02:09:00,
2013-10-23 22:14:00,43.7,37.3,29.47,NW,310,0.0,5.0,78,0.00,,---,0.00,VWS V14.01,2013-10-24 02:14:00,
2013-10-23 22:19:00,43.6,37.2,29.47,WSW,257,1.0,5.0,78,0.00,,---,0.00,VWS V14.01,2013-10-24 02:19:00,
2013-10-23 22:24:00,43.4,37.0,29.47,WNW,296,0.0,5.0,78,0.00,,---,0.00,VWS V14.01,2013-10-24 02:24:00,
2013-10-23 22:29:00,43.3,37.2,29.47,WNW,289,0.0,5.0,79,0.00,,---,0.00,VWS V14.01,2013-10-24 02:29:00,
2013-10-23 22:30:00,45.2,37.1,29.45,WNW,303,0.0,5.0,73,0.00,,---,0.00,VWS V14.01,2013-10-24 02:30:00,
2013-10-23 22:34:00,43.1,37.0,29.47,WNW,286,0.0,2.0,79,0.00,,---,0.00,VWS V14.01,2013-10-24 02:34:00,
2013-10-23 22:39:00,43.1,37.4,29.47,West,279,0.0,2.0,80,0.00,,---,0.00,VWS V14.01,2013-10-24 02:39:00,
2013-10-23 22:44:00,42.9,37.2,29.47,WNW,302,0.0,4.0,80,0.00,,---,0.00,VWS V14.01,2013-10-24 02:44:00,
2013-10-23 22:49:00,43.0,37.3,29.47,NW,323,0.0,6.0,80,0.00,,---,0.00,VWS V14.01,2013-10-24 02:49:00,
2013-10-23 22:54:00,43.1,37.4,29.47,WNW,286,0.0,6.0,80,0.00,,---,0.00,VWS V14.01,2013-10-24 02:54:00,
2013-10-23 22:59:00,43.1,37.4,29.47,West,277,0.0,6.0,80,0.00,,---,0.00,VWS V14.01,2013-10-24 02:59:00,
2013-10-23 23:00:00,44.0,36.9,29.46,WNW,290,0.0,5.0,76,0.00,,---,0.00,VWS V14.01,2013-10-24 03:00:00,
2013-10-23 23:04:00,42.9,37.2,29.47,WNW,288,0.0,8.0,80,0.00,,---,0.00,VWS V14.01,2013-10-24 03:04:00,
2013-10-23 23:09:00,42.9,37.5,29.48,South,188,0.0,8.0,81,0.00,,---,0.00,VWS V14.01,2013-10-24 03:09:00,
2013-10-23 23:14:00,42.7,37.3,29.48,NW,304,3.0,8.0,81,0.00,,---,0.00,VWS V14.01,2013-10-24 03:14:00,
2013-10-23 23:19:00,42.6,37.2,29.48,West,277,0.0,8.0,81,0.00,,---,0.00,VWS V14.01,2013-10-24 03:19:00,
2013-10-23 23:24:00,42.5,37.1,29.48,NW,307,1.0,8.0,81,0.00,,---,0.00,VWS V14.01,2013-10-24 03:24:00,
2013-10-23 23:29:00,42.3,37.2,29.48,NW,317,0.0,8.0,82,0.00,,---,0.00,VWS V14.01,2013-10-24 03:29:00,
2013-10-23 23:30:00,43.3,37.2,29.47,West,277,2.0,5.0,79,0.00,,---,0.00,VWS V14.01,2013-10-24 03:30:00,
2013-10-23 23:34:00,42.2,37.1,29.48,NW,317,0.0,1.0,82,0.00,,---,0.00,VWS V14.01,2013-10-24 03:34:00,
2013-10-23 23:39:00,42.0,36.9,29.48,WNW,290,0.0,1.0,82,0.00,,---,0.00,VWS V14.01,2013-10-24 03:39:00,
2013-10-23 23:44:00,41.9,37.1,29.48,West,278,0.0,3.0,83,0.00,,---,0.00,VWS V14.01,2013-10-24 03:44:00,
2013-10-23 23:49:00,41.8,37.0,29.48,West,278,0.0,3.0,83,0.00,,---,0.00,VWS V14.01,2013-10-24 03:49:00,
2013-10-23 23:54:00,41.5,37.0,29.48,West,278,0.0,3.0,84,0.00,,---,0.00,VWS V14.01,2013-10-24 03:54:00,
2013-10-23 23:59:00,41.3,36.8,29.48,West,278,0.0,3.0,84,0.00,,---,0.00,VWS V14.01,2013-10-24 03:59:00,